KCLM/CLM METAR and TAF weather

Enter ICAO airport designator
Station Type Date Time Source
KCLM METAR 2019/10/16 18:53 UTC NOAA

KCLM 161853Z AUTO 20004KT 10SM FEW008 12/11 A2962 RMK AO2 SLP031 T01220106 $


Station Type Date Time Source
KCLM Decoded METAR 2019/10/16 18:53 UTC NOAA

PORT ANGELES FAIRCHILD INTERNATIONAL , WA, United States (KCLM) 48-07N 123-30W 85M
Oct 16, 2019 - 02:53 PM EDT / 2019.10.16 1853 UTC
Wind: from the SSW (200 degrees) at 5 MPH (4 KT):0
Visibility: 10 mile(s):0
Sky conditions: mostly clear
Temperature: 54.0 F (12.2 C)
Dew Point: 51.1 F (10.6 C)
Relative Humidity: 89%
Pressure (altimeter): 29.62 in. Hg (1003 hPa)
ob: KCLM 161853Z AUTO 20004KT 10SM FEW008 12/11 A2962 RMK AO2 SLP031 T01220106
cycle: 19

Station Type Date Time Source
KCLM TAF 2019/10/16 18:57 UTC NOAA

TAF KCLM 161755Z 1618/1718 VRB03KT P6SM OVC060
FM162100 30008KT P6SM -RA SCT025 BKN040
FM170300 27005KT P6SM -SHRA BKN040 OVC060
FM171200 24005KT P6SM -SHRA BKN030 OVC050

Example: see airport list